Terminal Aerodrome Forecast
Issued by NWS Louisville, KY

Home | Current Version | Previous Version | Text Only | Print | Product List | Glossary On
Versions: 1 2 3 4 5 6 7 8 9 10 11 12 13 14 15 16 17 18 19 20 21 22
672
FTUS43 KLMK 041720
TAFBWG
TAF
KBWG 041720Z 0418/0518 13008KT P6SM BKN012 OVC035
     FM042000 19007KT 4SM -RA BR OVC010
     FM050200 28007KT 4SM -DZ BR OVC007
     FM050800 36003KT 3SM BR OVC006
     FM051500 06004KT P6SM BKN015=

USA.gov is the U.S. government's official web portal to all federal, state and local government web resources and services.